createdAt,value
2018-05-18T00:00:06.418Z,12.39
2018-05-18T00:02:34.759Z,12.49
2018-05-18T00:05:04.000Z,12.36
2018-05-18T00:07:33.133Z,12.39
2018-05-18T00:10:01.499Z,12.43
2018-05-18T00:12:29.826Z,12.23
2018-05-18T00:14:58.930Z,12.20
2018-05-18T00:17:27.280Z,12.06
2018-05-18T00:19:55.641Z,11.97
2018-05-18T00:22:24.346Z,12.03
2018-05-18T00:24:52.802Z,11.95
2018-05-18T00:27:21.509Z,11.89
2018-05-18T00:29:49.863Z,11.83
2018-05-18T00:32:18.199Z,11.76
2018-05-18T00:34:46.565Z,11.52
2018-05-18T00:37:14.952Z,11.53
2018-05-18T00:39:43.285Z,11.43
2018-05-18T00:42:11.650Z,11.53
2018-05-18T00:44:39.982Z,11.54
2018-05-18T00:47:08.381Z,11.62
2018-05-18T00:49:38.373Z,11.67
2018-05-18T00:52:08.542Z,11.61
2018-05-18T00:54:37.277Z,11.54
2018-05-18T00:57:07.045Z,11.51
2018-05-18T00:59:36.226Z,11.41
2018-05-18T01:02:04.610Z,11.47
2018-05-18T01:04:32.936Z,11.37
2018-05-18T01:07:01.539Z,11.36
2018-05-18T01:09:29.874Z,11.45
2018-05-18T01:11:58.247Z,11.47
2018-05-18T01:14:26.569Z,11.54
2018-05-18T01:16:54.941Z,11.58
2018-05-18T01:19:23.301Z,11.56
2018-05-18T01:21:51.668Z,11.78
2018-05-18T01:24:20.001Z,11.75
2018-05-18T01:26:48.633Z,11.81
2018-05-18T01:29:17.876Z,11.82
2018-05-18T01:31:47.571Z,11.65
2018-05-18T01:34:16.542Z,11.89
2018-05-18T01:36:45.334Z,11.92
2018-05-18T01:39:14.542Z,11.97
2018-05-18T01:41:46.574Z,12.06
2018-05-18T01:44:14.898Z,11.94
2018-05-18T01:46:43.261Z,12.03
2018-05-18T01:49:12.435Z,12.12
2018-05-18T01:51:41.592Z,11.91
2018-05-18T01:54:10.320Z,11.97
2018-05-18T01:56:38.683Z,11.95
2018-05-18T01:59:07.047Z,12.06
2018-05-18T02:01:36.113Z,12.12
2018-05-18T02:04:04.474Z,12.16
2018-05-18T02:06:32.792Z,12.29
2018-05-18T02:09:01.973Z,12.29
2018-05-18T02:11:33.337Z,12.25
2018-05-18T02:14:01.697Z,12.23
2018-05-18T02:16:30.882Z,12.27
2018-05-18T02:18:59.249Z,12.21
2018-05-18T02:21:28.339Z,12.28
2018-05-18T02:23:57.533Z,12.24
2018-05-18T02:26:25.879Z,12.27
2018-05-18T02:28:54.238Z,12.27
2018-05-18T02:31:22.581Z,12.33
2018-05-18T02:33:51.690Z,12.30
2018-05-18T02:36:20.272Z,12.35
2018-05-18T02:38:48.638Z,12.29
2018-05-18T02:41:16.989Z,12.39
2018-05-18T02:43:45.355Z,12.41
2018-05-18T02:46:13.702Z,12.34
2018-05-18T02:48:42.058Z,12.34
2018-05-18T02:51:10.449Z,12.43
2018-05-18T02:53:38.809Z,12.31
2018-05-18T02:56:07.967Z,12.35
2018-05-18T02:58:36.368Z,12.34
2018-05-18T03:01:04.698Z,12.18
2018-05-18T03:03:33.052Z,12.12
2018-05-18T03:06:01.449Z,12.20
2018-05-18T03:08:30.021Z,11.99
2018-05-18T03:10:58.746Z,12.09
2018-05-18T03:13:27.173Z,12.11
2018-05-18T03:15:55.583Z,12.12
2018-05-18T03:18:25.960Z,12.20
2018-05-18T03:20:54.624Z,12.14
2018-05-18T03:23:23.136Z,11.98
2018-05-18T03:25:51.489Z,11.96
2018-05-18T03:28:19.866Z,11.98
2018-05-18T03:30:48.275Z,11.92
2018-05-18T03:33:16.840Z,12.04
2018-05-18T03:35:45.199Z,12.04
2018-05-18T03:38:13.528Z,11.94
2018-05-18T03:40:41.925Z,11.96
2018-05-18T03:43:10.695Z,11.80
2018-05-18T03:45:39.285Z,11.74
2018-05-18T03:48:07.609Z,11.80
2018-05-18T03:50:35.976Z,11.80
2018-05-18T03:53:04.313Z,11.69
2018-05-18T03:55:33.408Z,11.53
2018-05-18T03:58:01.740Z,11.56
2018-05-18T04:00:30.101Z,11.51
2018-05-18T04:03:10.741Z,11.42
2018-05-18T04:05:51.777Z,11.36
2018-05-18T04:11:25.106Z,11.56
2018-05-18T04:13:54.361Z,11.36
2018-05-18T04:16:22.742Z,11.31
2018-05-18T04:18:52.094Z,11.35
2018-05-18T04:21:21.481Z,11.37
2018-05-18T04:23:50.965Z,11.49
2018-05-18T04:26:20.207Z,11.51
2018-05-18T04:28:48.539Z,11.65
2018-05-18T04:31:16.911Z,11.68
2018-05-18T04:33:45.240Z,11.74
2018-05-18T04:36:14.445Z,11.72
2018-05-18T04:38:42.770Z,11.77
2018-05-18T04:41:11.818Z,11.76
2018-05-18T04:43:40.856Z,11.75
2018-05-18T04:46:11.396Z,11.71
2018-05-18T04:48:41.559Z,11.73
2018-05-18T04:51:09.941Z,11.70
2018-05-18T04:53:38.278Z,11.66
2018-05-18T04:56:07.453Z,11.84
2018-05-18T04:58:36.361Z,11.89
2018-05-18T05:01:05.938Z,11.97
2018-05-18T05:03:34.291Z,11.91
2018-05-18T05:06:03.366Z,11.97
2018-05-18T05:08:32.549Z,11.99
2018-05-18T05:11:00.882Z,12.04
2018-05-18T05:13:29.281Z,12.15
2018-05-18T05:15:58.298Z,12.11
2018-05-18T05:18:26.792Z,12.07
2018-05-18T05:20:55.121Z,12.08
2018-05-18T05:23:23.607Z,12.26
2018-05-18T05:25:52.707Z,12.28
2018-05-18T05:28:21.072Z,12.31
2018-05-18T05:30:49.425Z,12.37
2018-05-18T05:33:18.226Z,12.34
2018-05-18T05:35:46.570Z,12.40
2018-05-18T05:38:14.934Z,12.31
2018-05-18T05:40:43.332Z,12.40
2018-05-18T05:43:11.737Z,12.41
2018-05-18T05:45:40.066Z,12.17
2018-05-18T05:48:09.253Z,12.20
2018-05-18T05:50:38.156Z,12.05
2018-05-18T05:53:06.817Z,12.05
2018-05-18T05:55:35.150Z,12.09
2018-05-18T05:58:03.529Z,12.13
2018-05-18T06:00:32.724Z,12.26
2018-05-18T06:03:01.081Z,12.31
2018-05-18T06:05:29.541Z,12.38
2018-05-18T06:07:57.797Z,12.30
2018-05-18T06:10:26.406Z,12.46
2018-05-18T06:12:54.796Z,12.14
2018-05-18T06:15:23.141Z,12.24
2018-05-18T06:17:51.546Z,12.41
2018-05-18T06:20:20.099Z,12.48
2018-05-18T06:22:49.553Z,12.47
2018-05-18T06:25:19.603Z,11.98
2018-05-18T06:27:48.696Z,12.16
2018-05-18T06:30:18.656Z,12.31
2018-05-18T06:32:47.045Z,12.38
2018-05-18T06:35:16.748Z,12.34
2018-05-18T06:37:44.916Z,12.56
2018-05-18T06:40:13.687Z,12.48
2018-05-18T06:42:42.043Z,12.48
2018-05-18T06:45:10.713Z,12.58
2018-05-18T06:47:39.192Z,12.44
2018-05-18T06:50:08.041Z,12.36
2018-05-18T06:52:37.363Z,12.37
2018-05-18T06:55:05.730Z,12.25
2018-05-18T06:57:34.969Z,12.26
2018-05-18T07:00:03.574Z,12.23
2018-05-18T07:02:32.553Z,12.33
2018-05-18T07:05:00.958Z,12.16
2018-05-18T07:07:29.455Z,12.16
2018-05-18T07:09:57.800Z,12.35
2018-05-18T07:12:27.287Z,11.92
2018-05-18T07:14:55.654Z,12.04
2018-05-18T07:17:24.758Z,11.60
2018-05-18T07:19:54.110Z,11.54
2018-05-18T07:22:22.872Z,11.91
2018-05-18T07:24:52.147Z,12.05
2018-05-18T07:27:20.537Z,11.55
2018-05-18T07:29:48.933Z,11.83
2018-05-18T07:32:17.264Z,11.79
2018-05-18T07:34:46.414Z,11.93
2018-05-18T07:37:15.557Z,12.21
2018-05-18T07:39:44.810Z,11.67
2018-05-18T07:42:14.022Z,11.97
2018-05-18T07:44:45.591Z,11.81
2018-05-18T07:47:14.833Z,12.04
2018-05-18T07:49:43.459Z,12.10
2018-05-18T07:52:13.593Z,11.87
2018-05-18T07:54:42.042Z,12.18
2018-05-18T07:57:10.467Z,11.98
2018-05-18T07:59:40.408Z,12.33
2018-05-18T08:02:09.226Z,12.50
2018-05-18T08:04:39.051Z,12.38
2018-05-18T08:07:08.216Z,12.41
2018-05-18T08:09:36.814Z,12.49
2018-05-18T08:12:05.177Z,11.98
2018-05-18T08:14:33.790Z,12.19
2018-05-18T08:17:03.101Z,12.11
2018-05-18T08:19:32.338Z,12.22
2018-05-18T08:22:02.409Z,12.27
2018-05-18T08:24:30.805Z,12.31
2018-05-18T08:27:11.211Z,12.37
2018-05-18T08:29:39.536Z,12.61
2018-05-18T08:32:07.917Z,12.66
2018-05-18T08:34:36.495Z,12.77
2018-05-18T08:37:05.466Z,12.75
2018-05-18T08:39:33.810Z,12.81
2018-05-18T08:42:02.201Z,12.83
2018-05-18T08:44:30.659Z,12.83
2018-05-18T08:46:59.050Z,12.90
2018-05-18T08:49:27.448Z,12.93
2018-05-18T08:51:57.530Z,12.99
2018-05-18T08:54:26.560Z,12.99
2018-05-18T08:56:56.022Z,12.85
2018-05-18T08:59:25.040Z,12.70
2018-05-18T09:01:53.405Z,12.75
2018-05-18T09:04:22.675Z,12.55
2018-05-18T09:06:51.676Z,12.47
2018-05-18T09:09:20.498Z,12.37
2018-05-18T09:11:49.684Z,12.54
2018-05-18T09:14:18.049Z,12.63
2018-05-18T09:16:47.249Z,12.54
2018-05-18T09:19:15.608Z,12.57
2018-05-18T09:21:43.954Z,12.74
2018-05-18T09:24:12.856Z,12.59
2018-05-18T09:26:41.465Z,12.69
2018-05-18T09:29:10.458Z,12.62
2018-05-18T09:31:39.431Z,12.76
2018-05-18T09:34:08.307Z,12.78
2018-05-18T09:36:36.582Z,12.92
2018-05-18T09:39:06.718Z,12.87
2018-05-18T09:41:36.549Z,12.94
2018-05-18T09:44:05.166Z,12.84
2018-05-18T09:46:33.509Z,12.97
2018-05-18T09:49:01.903Z,13.07
2018-05-18T09:51:30.525Z,13.01
2018-05-18T09:53:58.910Z,13.01
2018-05-18T09:56:27.257Z,13.09
2018-05-18T09:58:55.926Z,13.18
2018-05-18T10:01:24.304Z,13.19
2018-05-18T10:03:52.684Z,13.36
2018-05-18T10:06:21.018Z,13.43
2018-05-18T10:08:49.448Z,13.60
2018-05-18T10:11:17.829Z,13.66
2018-05-18T10:13:47.273Z,13.57
2018-05-18T10:16:16.341Z,13.41
2018-05-18T10:18:44.717Z,13.55
2018-05-18T10:21:13.072Z,13.59
2018-05-18T10:23:42.024Z,13.71
2018-05-18T10:26:10.390Z,13.69
2018-05-18T10:28:38.778Z,13.64
2018-05-18T10:31:08.945Z,13.70
2018-05-18T10:33:38.267Z,13.66
2018-05-18T10:36:07.284Z,13.64
2018-05-18T10:38:36.264Z,13.82
2018-05-18T10:41:04.636Z,13.76
2018-05-18T10:43:33.237Z,13.81
2018-05-18T10:46:02.930Z,13.69
2018-05-18T10:48:31.273Z,13.66
2018-05-18T10:50:59.681Z,13.53
2018-05-18T10:53:28.101Z,13.68
2018-05-18T10:55:56.466Z,13.70
2018-05-18T10:58:24.860Z,13.77
2018-05-18T11:00:54.957Z,13.78
2018-05-18T11:03:23.293Z,13.70
2018-05-18T11:05:51.654Z,13.86
2018-05-18T11:08:20.397Z,13.90
2018-05-18T11:10:48.765Z,13.76
2018-05-18T11:13:18.090Z,13.82
2018-05-18T11:15:46.822Z,13.77
2018-05-18T11:18:15.163Z,13.80
2018-05-18T11:20:43.581Z,13.94
2018-05-18T11:23:11.973Z,13.98
2018-05-18T11:25:41.272Z,13.86
2018-05-18T11:28:09.604Z,13.89
2018-05-18T11:30:37.977Z,13.79
2018-05-18T11:33:06.626Z,13.75
2018-05-18T11:35:36.465Z,13.79
2018-05-18T11:38:05.246Z,13.76
2018-05-18T11:40:33.658Z,13.83
2018-05-18T11:43:02.050Z,13.83
2018-05-18T11:45:33.279Z,13.86
2018-05-18T11:48:02.472Z,13.68
2018-05-18T11:50:30.738Z,13.75
2018-05-18T11:52:59.137Z,13.87
2018-05-18T11:55:28.204Z,13.91
2018-05-18T11:57:56.567Z,14.11
2018-05-18T12:00:24.913Z,14.11
2018-05-18T12:02:54.469Z,14.16
2018-05-18T12:05:23.157Z,14.10
2018-05-18T12:07:51.899Z,13.97
2018-05-18T12:10:20.988Z,14.12
2018-05-18T12:12:49.366Z,14.10
2018-05-18T12:15:18.527Z,13.93
2018-05-18T12:17:47.119Z,14.09
2018-05-18T12:20:16.252Z,14.02
2018-05-18T12:22:44.833Z,14.08
2018-05-18T12:25:13.304Z,14.11
2018-05-18T12:27:41.716Z,14.31
2018-05-18T12:30:10.068Z,14.33
2018-05-18T12:32:38.521Z,14.37
2018-05-18T12:35:07.871Z,14.41
2018-05-18T12:37:36.277Z,14.27
2018-05-18T12:40:05.287Z,14.48
2018-05-18T12:42:33.698Z,14.27
2018-05-18T12:45:02.962Z,14.33
2018-05-18T12:47:31.326Z,14.31
2018-05-18T12:50:00.632Z,14.47
2018-05-18T12:52:29.785Z,14.55
2018-05-18T12:54:58.376Z,14.61
2018-05-18T12:57:27.424Z,14.52
2018-05-18T12:59:55.790Z,14.34
2018-05-18T13:02:24.180Z,14.58
2018-05-18T13:04:52.553Z,14.72
2018-05-18T13:07:20.898Z,14.67
2018-05-18T13:09:49.312Z,14.59
2018-05-18T13:12:18.539Z,14.51
2018-05-18T13:14:47.433Z,14.20
2018-05-18T13:17:16.718Z,14.45
2018-05-18T13:19:45.872Z,14.61
2018-05-18T13:22:14.539Z,14.62
2018-05-18T13:24:42.928Z,14.75
2018-05-18T13:27:11.256Z,14.71
2018-05-18T13:29:40.296Z,14.79
2018-05-18T13:32:09.656Z,14.87
2018-05-18T13:34:39.005Z,14.75
2018-05-18T13:37:07.648Z,14.81
2018-05-18T13:39:36.026Z,14.86
2018-05-18T13:42:04.378Z,14.91
2018-05-18T13:44:33.129Z,14.98
2018-05-18T13:47:02.548Z,15.03
2018-05-18T13:49:30.907Z,15.09
2018-05-18T13:51:59.878Z,14.72
2018-05-18T13:54:29.160Z,14.81
2018-05-18T13:56:57.783Z,14.79
2018-05-18T13:59:26.398Z,14.77
2018-05-18T14:01:54.739Z,14.72
2018-05-18T14:04:23.107Z,14.89
2018-05-18T14:06:51.461Z,14.98
2018-05-18T14:09:19.848Z,15.00
2018-05-18T14:11:48.578Z,14.65
2018-05-18T14:14:18.289Z,15.05
2018-05-18T14:16:46.674Z,15.26
2018-05-18T14:19:15.013Z,15.22
2018-05-18T14:21:43.399Z,15.40
2018-05-18T14:24:12.501Z,15.05
2018-05-18T14:26:40.871Z,14.99
2018-05-18T14:29:09.204Z,15.37
2018-05-18T14:31:39.264Z,15.67
2018-05-18T14:34:08.561Z,15.82
2018-05-18T14:36:36.992Z,15.79
2018-05-18T14:39:06.169Z,15.76
2018-05-18T14:41:35.351Z,15.60
2018-05-18T14:44:03.742Z,15.67
2018-05-18T14:46:32.421Z,15.99
2018-05-18T14:49:00.763Z,16.15
2018-05-18T14:51:29.136Z,15.62
2018-05-18T14:53:57.471Z,16.35
2018-05-18T14:56:25.865Z,16.79
2018-05-18T14:58:55.113Z,17.22
2018-05-18T15:01:23.483Z,17.77
2018-05-18T15:03:53.105Z,17.03
2018-05-18T15:06:22.441Z,17.60
2018-05-18T15:08:51.802Z,17.74
2018-05-18T15:11:20.205Z,17.91
2018-05-18T15:13:48.782Z,17.91
2018-05-18T15:16:17.158Z,18.12
2018-05-18T15:18:45.485Z,18.41
2018-05-18T15:21:14.686Z,18.99
2018-05-18T15:23:43.014Z,19.70
2018-05-18T15:26:11.425Z,19.93
2018-05-18T15:28:40.345Z,20.23
2018-05-18T15:31:08.974Z,20.23
2018-05-18T15:33:38.153Z,19.63
2018-05-18T15:36:06.484Z,19.64
2018-05-18T15:38:35.621Z,19.79
2018-05-18T15:41:04.013Z,19.96
2018-05-18T15:43:33.197Z,20.02
2018-05-18T15:46:02.258Z,20.63
2018-05-18T15:48:30.629Z,20.65
2018-05-18T15:50:59.381Z,19.77
2018-05-18T15:53:27.737Z,19.72
2018-05-18T15:55:56.306Z,19.79
2018-05-18T15:58:25.459Z,19.95
2018-05-18T16:00:54.550Z,19.87
2018-05-18T16:03:23.666Z,19.96
2018-05-18T16:05:52.848Z,20.41
2018-05-18T16:08:21.215Z,19.85
2018-05-18T16:10:49.553Z,19.73
2018-05-18T16:13:17.914Z,19.64
2018-05-18T16:15:47.106Z,19.39
2018-05-18T16:18:15.460Z,19.52
2018-05-18T16:20:44.200Z,19.64
2018-05-18T16:23:12.593Z,19.92
2018-05-18T16:25:41.439Z,20.04
2018-05-18T16:28:09.825Z,19.74
2018-05-18T16:30:39.228Z,20.19
2018-05-18T16:33:08.423Z,20.03
2018-05-18T16:35:36.742Z,20.06
2018-05-18T16:38:05.107Z,20.10
2018-05-18T16:40:34.406Z,20.27
2018-05-18T16:43:03.275Z,20.14
2018-05-18T16:45:31.641Z,20.52
2018-05-18T16:48:00.034Z,20.57
2018-05-18T16:50:28.417Z,20.58
2018-05-18T16:52:57.437Z,20.26
2018-05-18T16:55:26.195Z,20.13
2018-05-18T16:57:54.605Z,20.31
2018-05-18T17:00:22.957Z,20.31
2018-05-18T17:02:52.610Z,19.90
2018-05-18T17:05:20.976Z,19.76
2018-05-18T17:07:49.323Z,19.73
2018-05-18T17:10:17.918Z,19.60
2018-05-18T17:12:46.280Z,19.47
2018-05-18T17:15:14.640Z,19.36
2018-05-18T17:17:42.969Z,19.15
2018-05-18T17:20:12.848Z,18.97
2018-05-18T17:22:41.580Z,18.67
2018-05-18T17:25:11.161Z,18.49
2018-05-18T17:27:39.481Z,18.02
2018-05-18T17:30:08.070Z,17.87
2018-05-18T17:32:36.490Z,18.01
2018-05-18T17:35:04.905Z,17.82
2018-05-18T17:37:34.233Z,17.82
2018-05-18T17:40:03.582Z,17.49
2018-05-18T17:42:33.145Z,17.75
2018-05-18T17:45:02.406Z,17.71
2018-05-18T17:47:30.831Z,17.56
2018-05-18T17:50:00.026Z,17.11
2018-05-18T17:52:28.434Z,17.00
2018-05-18T17:54:57.639Z,17.22
2018-05-18T17:57:26.918Z,16.86
2018-05-18T17:59:55.283Z,16.61
2018-05-18T18:02:23.654Z,16.65
2018-05-18T18:04:52.012Z,16.77
2018-05-18T18:07:21.248Z,16.59
2018-05-18T18:09:50.248Z,16.62
2018-05-18T18:12:18.587Z,16.55
2018-05-18T18:14:47.037Z,16.63
2018-05-18T18:17:15.372Z,16.62
2018-05-18T18:19:44.046Z,16.61
2018-05-18T18:22:12.392Z,16.64
2018-05-18T18:24:40.734Z,16.53
2018-05-18T18:27:10.787Z,16.52
2018-05-18T18:29:39.492Z,16.36
2018-05-18T18:32:08.264Z,16.31
2018-05-18T18:34:36.637Z,16.31
2018-05-18T18:37:05.726Z,16.35
2018-05-18T18:39:34.715Z,16.39
2018-05-18T18:42:03.359Z,16.15
2018-05-18T18:44:31.688Z,16.10
2018-05-18T18:47:00.074Z,15.73
2018-05-18T18:49:29.065Z,15.38
2018-05-18T18:51:57.718Z,14.99
2018-05-18T18:54:26.010Z,15.02
2018-05-18T18:56:55.274Z,14.97
2018-05-18T18:59:24.431Z,14.92
2018-05-18T19:01:52.777Z,15.14
2018-05-18T19:04:21.123Z,15.30
2018-05-18T19:06:49.934Z,15.19
2018-05-18T19:09:18.293Z,15.13
2018-05-18T19:11:47.816Z,15.10
2018-05-18T19:14:16.142Z,15.10
2018-05-18T19:16:45.285Z,15.03
2018-05-18T19:19:14.311Z,14.98
2018-05-18T19:21:43.452Z,14.97
2018-05-18T19:24:11.857Z,14.81
2018-05-18T19:26:40.150Z,14.81
2018-05-18T19:29:08.499Z,14.98
2018-05-18T19:31:36.882Z,14.90
2018-05-18T19:34:05.253Z,14.64
2018-05-18T19:36:33.628Z,14.56
2018-05-18T19:39:01.948Z,14.48
2018-05-18T19:41:30.754Z,14.27
2018-05-18T19:43:59.186Z,14.23
2018-05-18T19:46:27.552Z,14.31
2018-05-18T19:48:55.913Z,14.30
2018-05-18T19:51:24.245Z,14.20
2018-05-18T19:53:53.453Z,14.16
2018-05-18T19:56:24.318Z,14.22
2018-05-18T19:58:52.793Z,13.99
2018-05-18T20:01:21.135Z,13.85
2018-05-18T20:03:50.413Z,13.89
2018-05-18T20:06:19.633Z,13.92
2018-05-18T20:08:48.012Z,13.77
2018-05-18T20:11:17.119Z,13.77
2018-05-18T20:13:45.475Z,13.77
2018-05-18T20:16:13.967Z,13.68
2018-05-18T20:18:42.321Z,13.73
2018-05-18T20:21:11.476Z,13.85
2018-05-18T20:23:39.837Z,13.86
2018-05-18T20:26:09.320Z,13.91
2018-05-18T20:28:38.118Z,13.93
2018-05-18T20:31:06.454Z,13.81
2018-05-18T20:33:34.820Z,13.59
2018-05-18T20:36:03.164Z,13.75
2018-05-18T20:38:31.620Z,13.86
2018-05-18T20:41:00.820Z,13.81
2018-05-18T20:43:30.178Z,13.65
2018-05-18T20:45:58.984Z,13.65
2018-05-18T20:48:27.332Z,13.57
2018-05-18T20:50:55.725Z,13.48
2018-05-18T20:53:24.978Z,13.48
2018-05-18T20:55:53.332Z,13.42
2018-05-18T20:58:21.718Z,13.51
2018-05-18T21:00:50.077Z,13.50
2018-05-18T21:03:20.028Z,13.55
2018-05-18T21:05:48.475Z,13.48
2018-05-18T21:08:17.752Z,13.51
2018-05-18T21:10:47.037Z,13.37
2018-05-18T21:13:15.416Z,13.37
2018-05-18T21:15:44.658Z,13.36
2018-05-18T21:18:13.331Z,13.37
2018-05-18T21:20:42.117Z,13.30
2018-05-18T21:23:10.961Z,13.27
2018-05-18T21:25:39.329Z,13.26
2018-05-18T21:28:07.674Z,13.16
2018-05-18T21:30:36.141Z,13.13
2018-05-18T21:33:04.409Z,13.16
2018-05-18T21:35:32.765Z,13.21
2018-05-18T21:38:01.434Z,13.15
2018-05-18T21:40:30.423Z,12.93
2018-05-18T21:42:58.994Z,12.81
2018-05-18T21:45:27.393Z,12.65
2018-05-18T21:47:56.379Z,12.74
2018-05-18T21:50:25.952Z,12.82
2018-05-18T21:52:54.919Z,12.80
2018-05-18T21:55:23.677Z,12.86
2018-05-18T21:57:52.903Z,12.74
2018-05-18T22:00:21.237Z,12.80
2018-05-18T22:02:50.127Z,12.46
2018-05-18T22:05:19.285Z,12.45
2018-05-18T22:07:47.678Z,12.52
2018-05-18T22:10:16.569Z,12.64
2018-05-18T22:12:44.927Z,12.58
2018-05-18T22:15:14.090Z,12.62
2018-05-18T22:17:42.507Z,12.62
2018-05-18T22:20:10.889Z,12.45
2018-05-18T22:22:39.283Z,12.24
2018-05-18T22:25:08.081Z,12.26
2018-05-18T22:27:36.427Z,12.17
2018-05-18T22:30:04.760Z,12.18
2018-05-18T22:32:33.126Z,12.17
2018-05-18T22:35:01.741Z,12.15
2018-05-18T22:37:30.178Z,12.16
2018-05-18T22:39:59.549Z,12.17
2018-05-18T22:42:27.950Z,12.03
2018-05-18T22:44:57.253Z,11.84
2018-05-18T22:47:26.534Z,11.96
2018-05-18T22:49:54.873Z,11.80
2018-05-18T22:52:24.013Z,11.85
2018-05-18T22:54:52.390Z,11.98
2018-05-18T22:57:20.762Z,12.00
2018-05-18T22:59:49.080Z,11.97
2018-05-18T23:02:18.672Z,11.99
2018-05-18T23:04:47.019Z,12.02
2018-05-18T23:07:16.112Z,12.08
2018-05-18T23:09:44.466Z,12.08
2018-05-18T23:12:12.875Z,12.07
2018-05-18T23:14:41.771Z,12.04
2018-05-18T23:17:10.148Z,11.86
2018-05-18T23:19:38.544Z,11.85
2018-05-18T23:22:07.445Z,11.73
2018-05-18T23:24:36.081Z,11.83
2018-05-18T23:27:04.457Z,11.59
2018-05-18T23:29:33.762Z,11.65
2018-05-18T23:32:02.099Z,11.66
2018-05-18T23:34:30.457Z,11.67
2018-05-18T23:36:58.802Z,11.63
2018-05-18T23:39:27.235Z,11.66
2018-05-18T23:41:55.590Z,11.66
2018-05-18T23:44:23.952Z,11.58
2018-05-18T23:46:52.366Z,11.44
2018-05-18T23:49:20.766Z,11.46
2018-05-18T23:51:49.349Z,11.39
2018-05-18T23:54:17.724Z,11.43
2018-05-18T23:56:46.893Z,11.35
2018-05-18T23:59:15.271Z,11.14
